Terminal Aerodrome Forecast
Issued by NWS

Home | Current Version | Previous Version | Graphics & Text | Print | Product List | Glossary On
Versions: 1 2 3 4 5 6 7 8 9 10 11 12 13 14 15 16 17
000
FTUS43 KBIS 292320
TAFDIK
TAF
KDIK 292320Z 3000/3024 18007KT 6SM FU FEW250
     FM301200 19008KT P6SM SCT250
     FM302200 24009KT P6SM FEW250=

USA.gov is the U.S. government's official web portal to all federal, state and local government web resources and services.